Time;durP1;ratioP1;P1;durP2;ratioP2;P2;SDS_P1;SDS_P2;PMS_P1;PMS_P2;Temp;Humidity;BMP_temperature;BMP_pressure;BME280_temperature;BME280_humidity;BME280_pressure;Samples;Min_cycle;Max_cycle;Signal;HPM_P1;HPM_P2
2021/03/13 00:01:56;;;;;;;20.10;3.27;;;;;;;6.22;84.84;99896.28;5031643;28;20053;-76
2021/03/13 00:04:21;;;;;;;29.40;3.90;;;;;;;6.35;84.38;99883.81;5032049;28;20021;-78
2021/03/13 00:06:46;;;;;;;16.07;3.00;;;;;;;6.28;84.75;99877.72;5031801;28;20087;-77
2021/03/13 00:09:12;;;;;;;22.10;4.37;;;;;;;6.33;84.36;99871.03;5030442;28;20275;-77
2021/03/13 00:11:37;;;;;;;18.00;3.43;;;;;;;6.37;84.15;99871.97;5013655;28;20475;-77
2021/03/13 00:14:02;;;;;;;20.00;3.60;;;;;;;6.40;83.78;99862.69;5014716;28;20280;-77
2021/03/13 00:16:27;;;;;;;17.58;3.05;;;;;;;6.45;83.34;99863.69;5014450;28;20025;-77
2021/03/13 00:18:53;;;;;;;19.88;3.40;;;;;;;6.46;83.67;99851.78;5031959;28;20022;-76
2021/03/13 00:21:18;;;;;;;17.70;2.87;;;;;;;6.48;83.15;99853.53;5013513;28;20025;-78
2021/03/13 00:23:43;;;;;;;16.00;3.03;;;;;;;6.49;83.44;99851.84;5014525;28;20368;-77
2021/03/13 00:26:09;;;;;;;13.00;2.83;;;;;;;6.49;83.28;99844.19;5014017;28;20028;-77
2021/03/13 00:28:34;;;;;;;13.73;2.63;;;;;;;6.48;83.44;99845.03;5012483;28;20026;-77
2021/03/13 00:31:00;;;;;;;17.60;3.33;;;;;;;6.45;84.10;99847.50;5013478;28;20283;-77
2021/03/13 00:33:28;;;;;;;17.43;3.43;;;;;;;6.42;84.74;99837.22;5013490;28;20014;-76
2021/03/13 00:35:53;;;;;;;13.97;3.23;;;;;;;6.41;84.71;99830.41;5013405;28;20272;-78
2021/03/13 00:38:21;;;;;;;24.00;3.83;;;;;;;6.37;84.77;99818.41;5032112;28;20052;-78
2021/03/13 00:40:48;;;;;;;14.90;2.53;;;;;;;6.29;86.03;99817.38;5031906;28;20403;-80
2021/03/13 00:43:14;;;;;;;;;;;;;;;6.26;86.11;99804.53;5033059;28;20033;-79
2021/03/13 00:45:40;;;;;;;13.53;2.73;;;;;;;6.24;86.29;99802.81;5033254;28;19913;-79
2021/03/13 00:48:06;;;;;;;14.02;2.58;;;;;;;6.20;86.43;99803.56;5014991;28;20018;-76
2021/03/13 00:50:33;;;;;;;14.05;2.88;;;;;;;6.19;86.96;99794.19;5032035;28;20029;-81
2021/03/13 00:53:00;;;;;;;11.07;2.80;;;;;;;6.17;86.94;99795.81;5014122;28;20022;-78
2021/03/13 00:55:25;;;;;;;;;;;;;;;6.22;87.48;99789.19;5032468;28;20075;-77
2021/03/13 00:57:50;;;;;;;12.87;3.03;;;;;;;6.19;87.00;99778.03;5031875;28;19917;-78
2021/03/13 01:00:19;;;;;;;19.95;3.40;;;;;;;6.16;86.56;99772.84;5031999;28;20410;-78
2021/03/13 01:02:44;;;;;;;13.70;2.93;;;;;;;6.16;87.42;99783.91;5013128;28;20029;-77
2021/03/13 01:05:10;;;;;;;17.13;4.60;;;;;;;6.09;87.93;99776.94;5031529;28;20036;-77
2021/03/13 01:07:37;;;;;;;;;;;;;;;6.12;88.24;99776.16;5015240;28;20108;-79
2021/03/13 01:10:13;;;;;;;12.80;3.07;;;;;;;6.08;88.58;99759.91;5014140;28;19920;-78
2021/03/13 01:12:39;;;;;;;13.18;2.70;;;;;;;6.03;88.60;99743.66;5032264;28;20028;-78
2021/03/13 01:15:11;;;;;;;18.83;3.28;;;;;;;6.04;88.90;99742.81;5032458;28;20025;-79
2021/03/13 01:17:36;;;;;;;14.77;2.37;;;;;;;5.96;88.93;99723.94;5031274;28;20151;-79
2021/03/13 01:20:05;;;;;;;13.23;2.67;;;;;;;5.98;89.14;99721.44;5031611;28;20029;-77
2021/03/13 01:22:30;;;;;;;13.17;2.10;;;;;;;5.89;89.81;99712.75;5012695;28;20093;-80
2021/03/13 01:24:55;;;;;;;10.60;2.83;;;;;;;5.87;90.09;99714.38;5032026;28;20107;-78
2021/03/13 01:27:21;;;;;;;9.37;2.10;;;;;;;5.85;89.84;99689.63;5033059;28;20036;-79
2021/03/13 01:29:46;;;;;;;12.27;2.17;;;;;;;5.87;90.40;99672.72;5014213;28;20347;-78
2021/03/13 01:32:11;;;;;;;12.90;2.60;;;;;;;5.83;90.52;99668.34;5014471;28;20013;-80
2021/03/13 01:34:36;;;;;;;14.20;2.67;;;;;;;5.81;91.24;99662.34;5014542;28;20104;-79
2021/03/13 01:37:02;;;;;;;7.03;2.57;;;;;;;5.82;91.01;99658.97;5014933;28;20294;-80
2021/03/13 01:39:27;;;;;;;16.50;3.60;;;;;;;5.82;91.00;99651.34;5031892;28;20035;-78
2021/03/13 01:41:53;;;;;;;17.90;4.65;;;;;;;5.83;91.12;99641.19;5013075;28;20025;-78
2021/03/13 01:44:18;;;;;;;15.32;4.20;;;;;;;5.83;90.89;99625.88;5014543;28;20063;-78
2021/03/13 01:46:43;;;;;;;17.23;4.88;;;;;;;5.83;91.11;99610.59;5014115;28;20071;-82
2021/03/13 01:49:18;;;;;;;16.10;5.07;;;;;;;5.83;91.32;99604.66;5031788;28;20025;-81
2021/03/13 01:51:44;;;;;;;15.40;4.80;;;;;;;5.78;91.31;99596.91;5013840;28;20032;-78
2021/03/13 01:54:10;;;;;;;;;;;;;;;5.80;91.27;99590.16;5014799;28;20506;-78
2021/03/13 01:56:36;;;;;;;13.73;4.60;;;;;;;5.73;91.63;99587.44;5031715;28;19971;-79
2021/03/13 01:59:01;;;;;;;;;;;;;;;5.76;91.73;99573.06;5032561;28;20022;-77
2021/03/13 02:01:26;;;;;;;11.03;4.07;;;;;;;5.80;91.61;99569.75;5013142;28;19978;-78
2021/03/13 02:03:52;;;;;;;13.47;4.63;;;;;;;5.73;92.55;99551.75;5030748;28;20101;-78
2021/03/13 02:06:17;;;;;;;13.67;4.03;;;;;;;5.70;92.52;99538.97;5032132;28;20276;-78
2021/03/13 02:09:07;;;;;;;14.80;4.00;;;;;;;5.76;91.84;99521.25;5015512;28;20283;-79
2021/03/13 02:11:32;;;;;;;18.70;4.27;;;;;;;5.76;92.03;99500.88;5014296;28;20025;-79
2021/03/13 02:14:10;;;;;;;18.47;4.80;;;;;;;5.74;92.27;99503.38;5032732;28;20083;-78
2021/03/13 02:16:56;;;;;;;13.47;3.43;;;;;;;5.74;91.86;99505.06;5032200;28;20491;-79
2021/03/13 02:19:46;;;;;;;13.40;3.60;;;;;;;5.77;91.92;99484.75;5032464;28;20021;-80
2021/03/13 02:22:14;;;;;;;9.27;3.10;;;;;;;5.77;91.82;99494.94;5014185;28;20029;-78
2021/03/13 02:25:04;;;;;;;12.03;3.90;;;;;;;5.73;92.33;99458.34;5017401;28;20070;-79
2021/03/13 02:27:43;;;;;;;13.90;4.07;;;;;;;5.77;92.04;99455.03;5018811;28;20029;-83
2021/03/13 02:30:14;;;;;;;14.27;3.97;;;;;;;5.76;92.11;99439.72;5036615;28;20021;-82
2021/03/13 02:32:49;;;;;;;11.57;3.87;;;;;;;5.78;92.02;99433.81;5018142;28;20096;-83
2021/03/13 02:35:18;;;;;;;10.90;4.57;;;;;;;5.81;91.70;99403.31;5017756;28;20033;-83
2021/03/13 02:38:00;;;;;;;14.17;3.97;;;;;;;5.81;91.56;99382.06;5017482;28;20044;-83
2021/03/13 02:40:28;;;;;;;14.13;3.67;;;;;;;5.83;91.31;99394.00;5018546;28;20025;-81
2021/03/13 02:43:02;;;;;;;10.60;3.60;;;;;;;5.90;91.25;99387.38;5018664;28;20029;-81
2021/03/13 02:45:32;;;;;;;13.60;4.27;;;;;;;5.88;91.51;99373.72;5018093;28;20027;-81
2021/03/13 02:48:02;;;;;;;11.20;3.70;;;;;;;5.89;91.43;99366.13;5035637;28;20029;-81
2021/03/13 02:50:29;;;;;;;9.37;3.80;;;;;;;5.86;91.61;99363.50;5017737;28;20040;-77
2021/03/13 02:52:55;;;;;;;14.53;4.07;;;;;;;5.92;91.90;99339.84;5017915;28;20033;-78
2021/03/13 02:55:21;;;;;;;;;;;;;;;5.90;91.93;99334.72;5017858;28;20451;-79
2021/03/13 02:57:49;;;;;;;7.75;4.00;;;;;;;5.92;91.86;99317.78;5016151;28;19920;-79
2021/03/13 03:00:19;;;;;;;13.17;3.80;;;;;;;5.91;91.67;99312.66;5035501;28;20116;-79
2021/03/13 03:02:48;;;;;;;11.73;3.87;;;;;;;5.94;91.85;99305.06;5033489;28;20025;-77
2021/03/13 03:05:17;;;;;;;12.73;3.70;;;;;;;5.99;91.49;99295.78;5036286;28;20029;-81
2021/03/13 03:07:45;;;;;;;9.33;3.43;;;;;;;5.98;91.59;99291.53;5017854;28;20021;-79
2021/03/13 03:10:13;;;;;;;8.30;3.23;;;;;;;5.99;91.62;99270.31;5035702;28;20491;-80
2021/03/13 03:12:41;;;;;;;10.57;3.90;;;;;;;6.00;91.64;99268.59;5035115;28;20100;-77
2021/03/13 03:15:08;;;;;;;12.43;3.17;;;;;;;6.01;91.98;99249.94;5035493;28;20079;-80
2021/03/13 03:17:37;;;;;;;13.83;4.47;;;;;;;5.99;91.94;99255.00;5017181;28;20021;-78
2021/03/13 03:20:07;;;;;;;15.10;3.30;;;;;;;6.06;91.73;99236.44;5017027;28;20018;-80
2021/03/13 03:22:35;;;;;;;11.53;3.50;;;;;;;6.05;91.71;99234.72;5016938;28;20021;-80
2021/03/13 03:25:00;;;;;;;12.57;3.93;;;;;;;6.07;91.84;99209.25;5034068;28;20029;-80
2021/03/13 03:27:25;;;;;;;10.82;3.00;;;;;;;6.09;91.93;99195.69;5016582;28;20033;-79
2021/03/13 03:29:51;;;;;;;9.45;2.80;;;;;;;6.13;91.84;99196.59;5035229;28;20108;-78
2021/03/13 03:32:16;;;;;;;8.95;3.00;;;;;;;6.11;92.09;99182.97;5034374;28;20025;-80
2021/03/13 03:34:42;;;;;;;9.80;2.63;;;;;;;6.11;91.99;99167.66;5017462;28;20025;-79
2021/03/13 03:37:07;;;;;;;14.00;3.43;;;;;;;6.19;91.19;99166.09;5016953;28;20152;-81
2021/03/13 03:39:34;;;;;;;10.05;2.80;;;;;;;6.21;91.14;99154.22;5016926;28;20641;-84
2021/03/13 03:42:01;;;;;;;8.47;2.27;;;;;;;6.26;91.19;99152.59;5015221;28;20076;-78
2021/03/13 03:44:27;;;;;;;9.00;2.20;;;;;;;6.25;91.22;99143.25;5035105;28;20026;-78
2021/03/13 03:46:59;;;;;;;6.97;2.40;;;;;;;6.29;90.91;99146.69;5034329;28;20029;-78
2021/03/13 03:49:26;;;;;;;12.10;2.73;;;;;;;6.28;90.74;99137.31;5034579;28;20056;-77
2021/03/13 03:51:54;;;;;;;11.50;2.80;;;;;;;6.34;91.47;99139.94;5015791;28;20701;-77
2021/03/13 03:54:20;;;;;;;8.27;2.20;;;;;;;6.31;91.51;99134.81;5034493;28;20486;-80
2021/03/13 03:56:47;;;;;;;10.97;2.43;;;;;;;6.30;91.71;99120.34;5034653;28;20036;-79
2021/03/13 03:59:17;;;;;;;;;;;;;;;6.31;92.17;99109.31;5034659;28;20029;-79
2021/03/13 04:01:52;;;;;;;10.33;2.77;;;;;;;6.29;92.07;99091.44;5015446;28;20267;-78
2021/03/13 04:04:20;;;;;;;12.83;2.50;;;;;;;6.33;91.75;99087.22;5032647;28;20029;-77
2021/03/13 04:06:47;;;;;;;6.57;2.07;;;;;;;6.32;91.99;99085.53;5016214;28;20394;-79
2021/03/13 04:09:13;;;;;;;8.63;2.43;;;;;;;6.41;90.87;99081.38;5034021;28;20061;-78
2021/03/13 04:11:40;;;;;;;;;;;;;;;6.41;91.41;99060.13;5015573;28;20622;-78
2021/03/13 04:14:07;;;;;;;8.40;2.45;;;;;;;6.44;91.05;99070.34;5015872;28;20286;-78
2021/03/13 04:16:32;;;;;;;13.57;2.70;;;;;;;6.48;90.91;99065.31;5014674;28;20112;-77
2021/03/13 04:18:59;;;;;;;7.97;2.00;;;;;;;6.53;90.51;99050.06;5015228;28;20112;-77
2021/03/13 04:21:26;;;;;;;12.87;2.93;;;;;;;6.53;90.66;99052.63;5014909;28;20414;-82
2021/03/13 04:23:51;;;;;;;10.87;2.13;;;;;;;6.57;90.45;99031.41;5033250;28;20033;-79
2021/03/13 04:26:17;;;;;;;5.75;1.95;;;;;;;6.57;90.79;99036.50;5033449;28;20113;-78
2021/03/13 04:28:46;;;;;;;11.17;2.90;;;;;;;6.59;90.71;99028.88;5032137;28;20033;-79
2021/03/13 04:31:13;;;;;;;11.90;2.40;;;;;;;6.59;90.97;99032.28;5032625;28;20033;-76
2021/03/13 04:33:39;;;;;;;10.87;2.43;;;;;;;6.56;91.31;99009.28;5014726;28;20018;-78
2021/03/13 04:36:05;;;;;;;11.33;2.30;;;;;;;6.58;90.77;98999.94;5015687;28;20437;-79
2021/03/13 04:38:32;;;;;;;11.37;3.00;;;;;;;6.56;90.92;98993.97;5015296;28;20048;-78
2021/03/13 04:40:58;;;;;;;11.67;2.30;;;;;;;6.58;91.29;98988.91;5012943;28;20367;-79
2021/03/13 04:43:25;;;;;;;9.47;2.60;;;;;;;6.56;91.47;98978.69;5033337;28;20021;-79
2021/03/13 04:45:55;;;;;;;9.37;2.17;;;;;;;6.59;91.37;98967.66;5032397;28;20033;-78
2021/03/13 04:48:21;;;;;;;12.27;2.77;;;;;;;6.56;91.55;98965.91;5014801;28;20036;-78
2021/03/13 04:50:46;;;;;;;14.68;2.85;;;;;;;6.58;91.54;98959.13;5032455;28;20104;-80
2021/03/13 04:53:12;;;;;;;13.05;2.63;;;;;;;6.52;91.90;98946.34;5032827;28;20037;-82
2021/03/13 04:55:37;;;;;;;11.87;3.30;;;;;;;6.54;91.77;98949.75;5015283;28;20025;-80
2021/03/13 04:58:03;;;;;;;13.38;2.00;;;;;;;6.53;92.01;98932.72;5014708;28;20288;-79
2021/03/13 05:00:28;;;;;;;12.70;3.35;;;;;;;6.56;91.26;98940.41;5032137;28;20021;-79
2021/03/13 05:02:53;;;;;;;14.43;2.65;;;;;;;6.59;91.39;98944.69;5015699;28;20513;-79
2021/03/13 05:05:19;;;;;;;11.87;2.20;;;;;;;6.63;91.33;98916.66;5033694;28;20040;-80
2021/03/13 05:07:44;;;;;;;12.90;2.22;;;;;;;6.64;91.05;98930.25;5032870;28;20063;-78
2021/03/13 05:10:10;;;;;;;18.52;2.17;;;;;;;6.61;91.43;98926.00;5013894;28;20026;-80
2021/03/13 05:12:36;;;;;;;10.67;1.93;;;;;;;6.66;90.84;98943.88;5015059;28;20036;-78
2021/03/13 05:15:04;;;;;;;8.10;1.98;;;;;;;6.74;90.16;98929.50;5016214;28;20080;-81
2021/03/13 05:17:29;;;;;;;9.60;1.40;;;;;;;6.74;89.90;98947.34;5015259;28;20021;-78
2021/03/13 05:19:55;;;;;;;10.02;2.60;;;;;;;6.65;90.13;98943.03;5033460;28;20030;-81
2021/03/13 05:22:20;;;;;;;9.90;1.70;;;;;;;6.62;88.62;98927.72;5032773;28;20025;-80
2021/03/13 05:24:46;;;;;;;7.55;1.33;;;;;;;6.62;86.50;98940.47;5033312;28;20079;-78
2021/03/13 05:27:11;;;;;;;11.53;1.17;;;;;;;6.67;85.37;98951.56;5033466;28;20026;-79
2021/03/13 05:29:36;;;;;;;10.30;1.47;;;;;;;6.62;85.55;98972.78;5014936;28;20063;-79
2021/03/13 05:32:02;;;;;;;9.47;1.33;;;;;;;6.57;84.00;98965.06;5015295;28;21273;-80
2021/03/13 05:34:27;;;;;;;9.48;1.45;;;;;;;6.50;84.18;98981.13;5014873;28;20268;-78
2021/03/13 05:36:52;;;;;;;12.90;1.63;;;;;;;6.45;83.06;98977.69;5015419;28;20032;-79
2021/03/13 05:39:18;;;;;;;10.45;1.40;;;;;;;6.46;82.95;98979.41;5014711;28;20781;-79
2021/03/13 05:41:45;;;;;;;11.52;1.48;;;;;;;6.39;82.22;98982.75;5032251;28;20037;-81
2021/03/13 05:44:12;;;;;;;10.93;1.70;;;;;;;6.47;81.70;98986.22;5015392;28;20025;-79
2021/03/13 05:46:38;;;;;;;12.30;1.77;;;;;;;6.34;81.96;98977.59;5014295;28;20067;-80
2021/03/13 05:49:05;;;;;;;12.38;1.52;;;;;;;6.40;80.25;98987.84;5014049;28;20506;-79
2021/03/13 05:51:51;;;;;;;16.30;2.10;;;;;;;6.36;81.02;99015.84;5031626;28;20080;-77
2021/03/13 05:54:18;;;;;;;11.93;1.93;;;;;;;6.33;79.38;98998.84;5030593;28;20072;-78
2021/03/13 05:56:44;;;;;;;14.00;2.20;;;;;;;6.37;78.35;99027.78;5013614;28;20402;-77
2021/03/13 05:59:11;;;;;;;13.87;2.13;;;;;;;6.35;77.65;99015.00;5032421;28;20036;-77
2021/03/13 06:01:37;;;;;;;10.00;2.10;;;;;;;6.32;78.61;99021.78;5014155;28;20029;-79
2021/03/13 06:04:03;;;;;;;12.02;1.95;;;;;;;6.23;78.27;99022.53;5012874;28;20427;-77
2021/03/13 06:06:29;;;;;;;12.30;2.55;;;;;;;6.18;78.09;99012.28;5031859;28;20061;-78
2021/03/13 06:08:54;;;;;;;;;;;;;;;6.17;78.68;99013.09;5014527;28;20091;-77
2021/03/13 06:11:22;;;;;;;17.33;2.70;;;;;;;6.23;77.74;99025.94;5031540;28;19913;-78
2021/03/13 06:13:48;;;;;;;12.27;2.20;;;;;;;6.27;78.36;99021.72;5014493;28;20048;-78
2021/03/13 06:16:13;;;;;;;11.50;1.95;;;;;;;6.17;79.35;99028.38;5013961;28;20037;-78
2021/03/13 06:18:48;;;;;;;12.75;2.30;;;;;;;6.16;79.23;99029.22;5013492;28;20025;-78
2021/03/13 06:21:30;;;;;;;11.73;1.80;;;;;;;6.18;78.57;99025.03;5012225;28;20068;-80
2021/03/13 06:24:12;;;;;;;14.60;2.07;;;;;;;6.23;77.83;99025.94;5030618;28;20033;-81
2021/03/13 06:26:59;;;;;;;12.70;1.80;;;;;;;6.30;78.18;99031.09;5014078;28;20025;-79
2021/03/13 06:29:24;;;;;;;15.87;2.17;;;;;;;6.26;78.23;99029.34;5013811;28;20039;-81
2021/03/13 06:32:06;;;;;;;12.38;2.38;;;;;;;6.21;78.03;99019.09;5013730;28;20109;-78
2021/03/13 06:34:32;;;;;;;14.27;2.50;;;;;;;6.15;78.36;99019.84;5013799;28;20033;-79
2021/03/13 06:37:20;;;;;;;20.10;2.10;;;;;;;6.12;77.97;99037.66;5031664;28;20033;-79
2021/03/13 06:39:46;;;;;;;9.93;1.97;;;;;;;6.13;79.27;99016.44;5012605;28;20017;-80
2021/03/13 06:42:19;;;;;;;20.45;3.05;;;;;;;6.19;78.89;99036.06;5013410;28;20090;-79
2021/03/13 06:45:02;;;;;;;18.83;3.33;;;;;;;6.14;79.63;99046.19;5013179;28;20033;-77
2021/03/13 06:47:33;;;;;;;15.60;2.97;;;;;;;6.22;80.06;99039.53;5030386;28;20541;-78
2021/03/13 06:50:10;;;;;;;26.13;3.27;;;;;;;6.25;79.57;99038.69;5030322;28;20021;-79
2021/03/13 06:52:36;;;;;;;18.53;2.90;;;;;;;6.25;78.93;99025.94;5012849;28;20548;-79
2021/03/13 06:55:02;;;;;;;22.43;3.80;;;;;;;6.28;78.67;99043.81;5029436;28;20395;-78
2021/03/13 06:57:28;;;;;;;;;;;;;;;6.28;78.95;99037.88;5012732;28;20052;-76
2021/03/13 06:59:56;;;;;;;27.13;4.63;;;;;;;6.23;79.77;99035.28;5012156;28;20047;-77
2021/03/13 07:02:22;;;;;;;24.97;3.77;;;;;;;6.29;79.57;99045.53;5029367;28;20029;-76
2021/03/13 07:04:47;;;;;;;20.52;4.00;;;;;;;6.25;78.95;99018.31;5029932;28;20025;-77
2021/03/13 07:07:33;;;;;;;16.60;2.65;;;;;;;6.50;78.03;99024.50;5012172;28;20030;-76
2021/03/13 07:10:08;;;;;;;21.20;2.87;;;;;;;6.73;77.86;99023.06;5033030;28;20049;-79
2021/03/13 07:12:36;;;;;;;26.87;4.17;;;;;;;6.85;75.88;99001.91;5033495;28;20054;-77
2021/03/13 07:15:14;;;;;;;27.47;3.73;;;;;;;7.19;75.51;99013.25;5016111;28;20471;-78
2021/03/13 07:18:01;;;;;;;31.80;3.87;;;;;;;7.75;73.27;98999.97;5032104;28;20368;-77
2021/03/13 07:20:32;;;;;;;27.33;3.58;;;;;;;7.59;71.87;99018.66;5014502;28;20033;-77
2021/03/13 07:23:00;;;;;;;29.50;4.70;;;;;;;7.24;72.88;99034.56;5015944;28;20053;-77
2021/03/13 07:25:27;;;;;;;21.87;3.27;;;;;;;6.93;74.66;99040.25;5015459;28;20025;-76
2021/03/13 07:28:01;;;;;;;21.07;4.30;;;;;;;6.74;76.43;99042.63;5015616;28;20124;-79
2021/03/13 07:30:29;;;;;;;26.70;4.93;;;;;;;7.22;77.13;99054.13;5032894;28;20025;-80
2021/03/13 07:33:05;;;;;;;28.77;4.37;;;;;;;7.53;74.27;99033.94;5015256;28;20061;-76
2021/03/13 07:35:37;;;;;;;29.48;4.43;;;;;;;7.63;74.58;99051.03;5013936;28;20021;-77
2021/03/13 07:38:05;;;;;;;21.63;3.83;;;;;;;7.65;75.61;99060.41;5031843;28;20029;-77
2021/03/13 07:40:34;;;;;;;28.37;4.10;;;;;;;7.83;74.23;99054.59;5032650;28;20021;-76
2021/03/13 07:43:00;;;;;;;27.70;4.20;;;;;;;7.58;74.93;99047.59;5033300;28;20025;-78
2021/03/13 07:45:26;;;;;;;27.87;3.80;;;;;;;7.36;76.16;99060.19;5033116;28;20025;-78
2021/03/13 07:47:52;;;;;;;26.35;4.47;;;;;;;6.99;77.08;99064.16;5033071;28;20108;-78
2021/03/13 07:50:18;;;;;;;29.67;4.93;;;;;;;6.89;77.56;99064.91;5014589;28;20029;-77
2021/03/13 07:52:49;;;;;;;23.67;4.00;;;;;;;7.02;76.77;99070.97;5014568;28;20033;-77
2021/03/13 07:55:16;;;;;;;17.53;3.90;;;;;;;7.95;74.66;99057.19;5031722;28;20033;-78
2021/03/13 07:57:44;;;;;;;30.77;4.00;;;;;;;8.51;72.22;99071.97;5014175;28;20244;-80
2021/03/13 08:00:10;;;;;;;16.10;3.00;;;;;;;9.24;70.01;99066.16;5032132;28;20025;-76
2021/03/13 08:02:36;;;;;;;;;;;;;;;9.97;69.33;99066.91;5014243;28;20025;-76
2021/03/13 08:05:07;;;;;;;26.50;3.20;;;;;;;10.91;66.14;99065.69;5031679;28;19913;-77
2021/03/13 08:07:55;;;;;;;26.13;4.13;;;;;;;10.07;64.92;99056.63;5014239;28;21596;-78
2021/03/13 08:10:55;;;;;;;26.02;3.90;;;;;;;9.38;67.14;99071.25;5014751;28;20028;-74
2021/03/13 08:13:41;;;;;;;25.47;3.67;;;;;;;9.28;67.70;99078.94;4932060;29;20027;-79
2021/03/13 08:16:12;;;;;;;20.67;3.45;;;;;;;9.71;63.19;99072.94;5012795;28;20128;-76
2021/03/13 08:18:49;;;;;;;19.50;3.15;;;;;;;10.54;63.38;99044.50;5013278;28;20477;-77
2021/03/13 08:21:17;;;;;;;;;;;;;;;11.11;59.48;99075.84;5031205;28;20029;-77
2021/03/13 08:23:59;;;;;;;18.95;3.28;;;;;;;10.86;60.74;99087.13;5028502;28;19917;-77
2021/03/13 08:26:33;;;;;;;18.50;3.60;;;;;;;9.70;63.71;99082.34;5030867;28;20052;-77
2021/03/13 08:29:09;;;;;;;20.23;3.65;;;;;;;9.15;66.35;99086.63;5012966;28;20103;-76
2021/03/13 08:31:44;;;;;;;20.27;3.65;;;;;;;8.81;68.31;99085.72;5030670;28;20601;-77
2021/03/13 08:34:12;;;;;;;28.57;4.57;;;;;;;8.59;69.65;99079.69;5013064;28;20022;-76
2021/03/13 08:36:46;;;;;;;30.27;4.87;;;;;;;8.29;70.93;99095.72;5030816;28;20021;-76
2021/03/13 08:39:14;;;;;;;33.90;4.70;;;;;;;8.27;72.46;99082.94;5012814;28;20448;-76
2021/03/13 08:41:42;;;;;;;27.80;4.00;;;;;;;8.25;71.84;99091.44;5030265;28;20021;-76
2021/03/13 08:44:15;;;;;;;42.07;6.43;;;;;;;8.32;72.38;99090.63;5031319;28;20117;-76
2021/03/13 08:46:47;;;;;;;24.90;4.97;;;;;;;8.39;71.13;99087.28;5012685;28;20533;-76
2021/03/13 08:49:23;;;;;;;28.40;4.13;;;;;;;8.55;70.74;99083.06;5012528;28;20029;-76
2021/03/13 08:51:49;;;;;;;28.50;6.07;;;;;;;8.61;69.32;99086.50;5030124;28;20021;-76
2021/03/13 08:54:39;;;;;;;32.30;4.90;;;;;;;8.74;68.15;99088.25;5012432;28;20048;-76
2021/03/13 08:57:18;;;;;;;32.07;5.57;;;;;;;8.72;67.59;99077.16;5030094;28;20021;-76
2021/03/13 08:59:56;;;;;;;25.50;4.63;;;;;;;8.78;67.44;99072.88;5013220;28;20037;-77
2021/03/13 09:02:23;;;;;;;31.70;5.00;;;;;;;8.99;68.30;99080.63;5012304;28;20025;-78
2021/03/13 09:04:51;;;;;;;29.63;4.87;;;;;;;9.32;66.30;99080.66;5012710;28;20029;-77
2021/03/13 09:07:18;;;;;;;36.77;5.60;;;;;;;9.16;65.84;99085.78;5030460;28;20032;-76
2021/03/13 09:09:45;;;;;;;33.47;5.40;;;;;;;8.84;67.76;99091.69;5030722;28;20056;-77
2021/03/13 09:12:13;;;;;;;35.63;5.32;;;;;;;9.52;68.68;99088.34;5030120;28;20422;-76
2021/03/13 09:14:41;;;;;;;30.10;4.63;;;;;;;9.85;64.81;99078.94;5031304;28;20018;-77
2021/03/13 09:17:14;;;;;;;26.80;4.55;;;;;;;9.51;63.91;99070.41;5029665;28;20059;-76
2021/03/13 09:19:44;;;;;;;38.78;6.00;;;;;;;9.25;65.78;99083.22;5029144;28;20021;-76
2021/03/13 09:22:20;;;;;;;36.03;6.47;;;;;;;8.94;66.56;99101.09;5029981;28;20063;-76
2021/03/13 09:24:57;;;;;;;39.42;5.55;;;;;;;8.78;66.90;99101.94;5012483;28;20028;-76
2021/03/13 09:27:37;;;;;;;28.00;4.70;;;;;;;8.83;67.72;99101.94;5030443;28;20487;-76
2021/03/13 09:30:10;;;;;;;30.13;4.57;;;;;;;9.14;67.42;99110.53;5012414;28;20052;-74
2021/03/13 09:32:44;;;;;;;25.73;6.17;;;;;;;9.25;66.86;99107.13;5010866;28;20112;-76
2021/03/13 09:35:10;;;;;;;37.67;5.70;;;;;;;9.31;65.45;99102.00;5011234;28;20029;-75
2021/03/13 09:37:36;;;;;;;;;;;;;;;9.38;65.87;99063.56;5030506;28;20029;-79
2021/03/13 09:40:06;;;;;;;25.10;3.70;;;;;;;9.56;65.23;99102.03;5012387;28;19913;-76
2021/03/13 09:42:34;;;;;;;32.47;3.80;;;;;;;10.11;63.16;99096.84;5012018;28;20029;-76
2021/03/13 09:45:08;;;;;;;18.00;4.03;;;;;;;10.20;60.94;99101.94;5030779;28;20034;-77
2021/03/13 09:47:38;;;;;;;20.63;3.80;;;;;;;10.24;60.87;99101.09;5012268;28;20021;-78
2021/03/13 09:50:13;;;;;;;26.70;4.20;;;;;;;9.76;61.62;99122.53;5029839;28;20044;-75
2021/03/13 09:52:41;;;;;;;16.37;3.73;;;;;;;9.51;61.78;99086.66;5012860;28;20060;-77
2021/03/13 09:55:12;;;;;;;26.27;3.67;;;;;;;10.41;61.51;99114.75;5030190;28;20034;-76
2021/03/13 09:57:40;;;;;;;17.35;3.95;;;;;;;11.38;58.92;99104.75;5029814;28;20048;-76
2021/03/13 10:00:36;;;;;;;22.83;3.35;;;;;;;11.77;57.59;99107.03;5028269;28;20025;-76
2021/03/13 10:03:09;;;;;;;16.58;3.17;;;;;;;11.79;56.08;99112.19;4998661;28;20042;-76
2021/03/13 10:05:34;;;;;;;19.52;3.35;;;;;;;11.18;57.84;99116.06;5030431;28;20036;-75
2021/03/13 10:08:09;;;;;;;23.20;3.83;;;;;;;11.14;57.65;99119.50;5029739;28;20029;-76
2021/03/13 10:10:35;;;;;;;24.75;4.00;;;;;;;10.63;59.29;99114.63;5029173;28;20029;-76
2021/03/13 10:13:03;;;;;;;26.00;4.05;;;;;;;10.19;61.62;99113.06;5029179;28;20560;-76
2021/03/13 10:15:32;;;;;;;23.23;4.18;;;;;;;9.97;61.72;99112.22;5029951;28;20390;-76
2021/03/13 10:18:18;;;;;;;26.95;3.83;;;;;;;9.66;63.19;99119.97;5011603;28;20026;-77
2021/03/13 10:20:50;;;;;;;23.33;3.70;;;;;;;9.47;63.13;99109.72;5011433;28;20509;-77
2021/03/13 10:23:35;;;;;;;18.70;3.10;;;;;;;9.58;62.14;99092.63;5010868;28;20036;-76
2021/03/13 10:26:14;;;;;;;16.17;3.63;;;;;;;9.90;63.07;99131.06;5011192;28;20028;-77
2021/03/13 10:28:46;;;;;;;25.10;3.43;;;;;;;9.88;62.70;99125.09;5011685;28;20086;-77
2021/03/13 10:31:19;;;;;;;27.07;4.03;;;;;;;9.57;61.62;99073.81;5029474;28;20418;-77
2021/03/13 10:33:46;;;;;;;19.17;2.93;;;;;;;9.55;61.75;99111.44;5012239;28;20022;-77
2021/03/13 10:36:13;;;;;;;18.30;2.70;;;;;;;9.61;62.10;99128.50;5029476;28;20107;-76
2021/03/13 10:38:43;;;;;;;18.00;2.83;;;;;;;9.35;61.52;99120.81;5029829;28;20022;-76
2021/03/13 10:41:10;;;;;;;17.70;3.27;;;;;;;9.46;62.53;99124.25;5028942;28;20099;-76
2021/03/13 10:43:42;;;;;;;21.53;4.17;;;;;;;9.61;63.40;99136.19;5030892;28;20511;-77
2021/03/13 10:46:11;;;;;;;27.17;4.20;;;;;;;9.50;63.94;99123.38;5015810;28;20030;-77
2021/03/13 10:48:56;;;;;;;23.60;3.63;;;;;;;9.75;63.81;99093.44;5033313;28;20022;-77
2021/03/13 10:51:27;;;;;;;29.17;3.63;;;;;;;9.79;62.71;99128.53;5015514;28;20033;-77
2021/03/13 10:53:54;;;;;;;20.90;3.87;;;;;;;9.41;62.96;99137.88;5033480;28;20025;-76
2021/03/13 10:56:20;;;;;;;27.50;3.47;;;;;;;9.30;63.89;99128.50;5033133;28;20067;-75
2021/03/13 10:58:49;;;;;;;22.67;3.78;;;;;;;9.27;63.14;99128.50;5033077;28;20105;-76
2021/03/13 11:01:16;;;;;;;19.77;4.47;;;;;;;9.27;61.93;99119.94;5032799;28;20486;-76
2021/03/13 11:03:43;;;;;;;23.43;3.67;;;;;;;9.45;64.52;99126.81;5033165;28;20036;-77
2021/03/13 11:06:09;;;;;;;16.33;3.33;;;;;;;9.29;62.81;99121.66;5015301;28;20056;-78
2021/03/13 11:08:34;;;;;;;;;;;;;;;9.12;62.58;99125.91;5015655;28;20558;-74
2021/03/13 11:11:00;;;;;;;15.50;2.50;;;;;;;8.76;62.37;99133.47;5032639;28;20058;-76
2021/03/13 11:13:26;;;;;;;14.60;2.15;;;;;;;8.64;63.84;99130.03;5014682;28;20043;-76
2021/03/13 11:15:52;;;;;;;14.10;2.70;;;;;;;8.54;63.89;99135.97;5016578;28;20025;-76
2021/03/13 11:18:18;;;;;;;17.25;2.45;;;;;;;8.70;64.32;99118.94;5015665;28;20036;-77
2021/03/13 11:20:45;;;;;;;16.60;2.43;;;;;;;9.74;65.37;99140.47;5015847;28;20434;-76
2021/03/13 11:23:11;;;;;;;14.33;2.43;;;;;;;11.59;57.71;99122.59;5033847;28;20025;-77
2021/03/13 11:25:37;;;;;;;15.40;2.17;;;;;;;10.84;58.23;99135.94;5034173;28;20510;-76
2021/03/13 11:28:03;;;;;;;10.63;2.22;;;;;;;10.10;59.24;99141.31;5033618;28;20037;-76
2021/03/13 11:30:29;;;;;;;;;;;;;;;9.46;61.81;99149.03;5032576;28;20079;-75
2021/03/13 11:32:54;;;;;;;16.17;1.90;;;;;;;9.18;63.55;99156.66;5033025;28;19920;-77
2021/03/13 11:35:20;;;;;;;12.07;2.28;;;;;;;9.58;63.99;99156.72;5033043;28;20075;-75
2021/03/13 11:37:46;;;;;;;;;;;;;;;10.06;60.87;99154.97;5019271;28;20120;-77
2021/03/13 11:40:13;;;;;;;12.65;1.83;;;;;;;10.17;60.88;99155.81;5033078;28;19975;-75
2021/03/13 11:42:38;;;;;;;7.30;1.90;;;;;;;9.86;60.82;99158.44;5015514;28;20029;-76
2021/03/13 11:45:06;;;;;;;10.52;2.15;;;;;;;10.06;60.82;99172.94;5033268;28;20029;-76
2021/03/13 11:47:31;;;;;;;10.50;1.80;;;;;;;10.52;60.09;99154.06;5033254;28;20029;-76